Colony, Kansas
Current Conditions -  °F | °C
As of 11:52 AM on Monday 22 Dec 2014 (Local Time) from KCNU Reporting Station
Light Rain Light Rain  
Wind Chill: 42°   Ceiling: 400
Heat Index: 47°   Visibility: 7mi
Dew Point: 47°   Wind: 10mph
Humidity: 100%   Direction: 220°SW
Pressure: 29.53"   Gusts: NA
Location:  38.07°N, 95.37°W
Report Text: KCNU 221752Z AUTO 22009KT 7SM -RA OVC004 08/08 A2953 RMK AO2 SLP001 P0001 60002 T00830083 10083 20067 58016
Loading
Personal Weather Stations






























Interactive Weather Map New forecast layout! Learn more

10-Day Weather Forecast

Advertisements
Track Severe Weather on mobile